sensor_id;sensor_type;location;lat;lon;timestamp;temperature;humidity
33841;DHT22;20142;28.494;-16.312;2023-05-07T19:58:54;17.70;87.80
33841;DHT22;20142;28.494;-16.312;2023-05-07T20:03:56;18.00;87.20
33841;DHT22;20142;28.494;-16.312;2023-05-07T20:08:59;18.10;85.70
33841;DHT22;20142;28.494;-16.312;2023-05-07T20:14:00;18.10;85.80
33841;DHT22;20142;28.494;-16.312;2023-05-07T20:19:04;18.20;85.30
33841;DHT22;20142;28.494;-16.312;2023-05-07T20:24:06;18.20;85.50
33841;DHT22;20142;28.494;-16.312;2023-05-07T20:29:08;18.20;85.10
33841;DHT22;20142;28.494;-16.312;2023-05-07T20:34:10;18.30;85.40
33841;DHT22;20142;28.494;-16.312;2023-05-07T20:39:11;18.20;85.00
33841;DHT22;20142;28.494;-16.312;2023-05-07T20:44:16;18.20;85.70
33841;DHT22;20142;28.494;-16.312;2023-05-07T20:49:19;18.20;85.80
33841;DHT22;20142;28.494;-16.312;2023-05-07T20:54:21;18.20;86.10
33841;DHT22;20142;28.494;-16.312;2023-05-07T20:59:23;18.20;87.20
33841;DHT22;20142;28.494;-16.312;2023-05-07T21:04:25;18.10;88.40
33841;DHT22;20142;28.494;-16.312;2023-05-07T21:09:27;18.10;87.30
33841;DHT22;20142;28.494;-16.312;2023-05-07T21:14:28;18.10;87.50
33841;DHT22;20142;28.494;-16.312;2023-05-07T21:19:30;18.10;87.30
33841;DHT22;20142;28.494;-16.312;2023-05-07T21:24:32;18.20;86.90
33841;DHT22;20142;28.494;-16.312;2023-05-07T21:29:34;18.10;87.10
33841;DHT22;20142;28.494;-16.312;2023-05-07T21:34:35;18.10;87.70
33841;DHT22;20142;28.494;-16.312;2023-05-07T21:39:37;18.10;87.60
33841;DHT22;20142;28.494;-16.312;2023-05-07T21:44:39;18.10;87.70
33841;DHT22;20142;28.494;-16.312;2023-05-07T21:49:40;18.10;86.70
33841;DHT22;20142;28.494;-16.312;2023-05-07T21:54:42;18.20;86.00
33841;DHT22;20142;28.494;-16.312;2023-05-07T21:59:44;18.00;86.70
33841;DHT22;20142;28.494;-16.312;2023-05-07T22:04:46;18.10;87.20
33841;DHT22;20142;28.494;-16.312;2023-05-07T22:09:47;18.20;86.80
33841;DHT22;20142;28.494;-16.312;2023-05-07T22:14:49;18.30;86.50
33841;DHT22;20142;28.494;-16.312;2023-05-07T22:19:51;18.40;86.50
33841;DHT22;20142;28.494;-16.312;2023-05-07T22:24:53;18.30;86.90
33841;DHT22;20142;28.494;-16.312;2023-05-07T22:29:55;18.40;86.80
33841;DHT22;20142;28.494;-16.312;2023-05-07T22:34:56;18.30;87.10
33841;DHT22;20142;28.494;-16.312;2023-05-07T22:39:58;18.30;86.90
33841;DHT22;20142;28.494;-16.312;2023-05-07T22:45:00;18.30;86.70
33841;DHT22;20142;28.494;-16.312;2023-05-07T22:50:01;18.40;87.00
33841;DHT22;20142;28.494;-16.312;2023-05-07T22:55:05;18.50;86.60
33841;DHT22;20142;28.494;-16.312;2023-05-07T23:00:08;18.50;86.70
33841;DHT22;20142;28.494;-16.312;2023-05-07T23:05:10;18.50;87.00
33841;DHT22;20142;28.494;-16.312;2023-05-07T23:10:12;18.60;87.10
33841;DHT22;20142;28.494;-16.312;2023-05-07T23:15:17;18.50;87.20
33841;DHT22;20142;28.494;-16.312;2023-05-07T23:20:19;18.40;86.40
33841;DHT22;20142;28.494;-16.312;2023-05-07T23:25:21;18.30;86.70
33841;DHT22;20142;28.494;-16.312;2023-05-07T23:30:23;18.30;87.00
33841;DHT22;20142;28.494;-16.312;2023-05-07T23:35:24;18.50;86.80
33841;DHT22;20142;28.494;-16.312;2023-05-07T23:40:26;18.50;86.80
33841;DHT22;20142;28.494;-16.312;2023-05-07T23:45:28;18.40;86.40
33841;DHT22;20142;28.494;-16.312;2023-05-07T23:50:29;18.40;86.00
33841;DHT22;20142;28.494;-16.312;2023-05-07T23:55:31;18.40;86.20
